sensor_id;sensor_type;location;lat;lon;timestamp;P1;durP1;ratioP1;P2;durP2;ratioP2
54959;SDS011;40860;51.710;8.736;2023-01-19T00:00:51;9.88;;;6.38;;
54959;SDS011;40860;51.710;8.736;2023-01-19T00:04:53;7.68;;;6.20;;
54959;SDS011;40860;51.710;8.736;2023-01-19T00:08:56;11.35;;;5.97;;
54959;SDS011;40860;51.710;8.736;2023-01-19T00:12:59;8.93;;;5.72;;
54959;SDS011;40860;51.710;8.736;2023-01-19T00:17:04;9.35;;;5.82;;
54959;SDS011;40860;51.710;8.736;2023-01-19T00:21:07;8.82;;;5.88;;
54959;SDS011;40860;51.710;8.736;2023-01-19T00:25:10;8.23;;;5.43;;
54959;SDS011;40860;51.710;8.736;2023-01-19T00:29:13;7.43;;;5.85;;
54959;SDS011;40860;51.710;8.736;2023-01-19T00:33:17;7.47;;;5.75;;
54959;SDS011;40860;51.710;8.736;2023-01-19T00:37:20;8.75;;;5.75;;
54959;SDS011;40860;51.710;8.736;2023-01-19T00:41:23;9.02;;;5.30;;
54959;SDS011;40860;51.710;8.736;2023-01-19T00:45:40;7.28;;;5.60;;
54959;SDS011;40860;51.710;8.736;2023-01-19T00:49:45;8.57;;;5.93;;
54959;SDS011;40860;51.710;8.736;2023-01-19T00:53:48;9.85;;;6.07;;
54959;SDS011;40860;51.710;8.736;2023-01-19T00:57:51;10.10;;;6.00;;
54959;SDS011;40860;51.710;8.736;2023-01-19T01:01:54;7.75;;;5.80;;
54959;SDS011;40860;51.710;8.736;2023-01-19T01:05:59;9.15;;;6.82;;
54959;SDS011;40860;51.710;8.736;2023-01-19T01:10:02;9.10;;;6.25;;
54959;SDS011;40860;51.710;8.736;2023-01-19T01:14:05;10.70;;;6.50;;
54959;SDS011;40860;51.710;8.736;2023-01-19T01:18:08;11.95;;;6.65;;
54959;SDS011;40860;51.710;8.736;2023-01-19T01:22:13;6.90;;;6.20;;
54959;SDS011;40860;51.710;8.736;2023-01-19T01:26:16;9.20;;;7.10;;
54959;SDS011;40860;51.710;8.736;2023-01-19T01:30:19;8.02;;;6.65;;
54959;SDS011;40860;51.710;8.736;2023-01-19T01:34:23;8.45;;;6.53;;
54959;SDS011;40860;51.710;8.736;2023-01-19T01:38:27;8.40;;;6.95;;
54959;SDS011;40860;51.710;8.736;2023-01-19T01:42:31;8.73;;;6.78;;
54959;SDS011;40860;51.710;8.736;2023-01-19T01:46:35;8.85;;;7.03;;
54959;SDS011;40860;51.710;8.736;2023-01-19T01:50:39;10.55;;;7.03;;
54959;SDS011;40860;51.710;8.736;2023-01-19T01:55:07;8.80;;;7.32;;
54959;SDS011;40860;51.710;8.736;2023-01-19T01:59:13;8.18;;;7.00;;
54959;SDS011;40860;51.710;8.736;2023-01-19T02:03:25;8.90;;;7.10;;
54959;SDS011;40860;51.710;8.736;2023-01-19T02:07:31;10.48;;;7.20;;
54959;SDS011;40860;51.710;8.736;2023-01-19T02:11:59;8.90;;;6.97;;
54959;SDS011;40860;51.710;8.736;2023-01-19T02:16:19;10.15;;;7.20;;
54959;SDS011;40860;51.710;8.736;2023-01-19T02:20:23;8.15;;;6.30;;
54959;SDS011;40860;51.710;8.736;2023-01-19T02:24:30;7.82;;;6.70;;
54959;SDS011;40860;51.710;8.736;2023-01-19T02:28:33;9.68;;;7.30;;
54959;SDS011;40860;51.710;8.736;2023-01-19T02:32:39;11.52;;;7.10;;
54959;SDS011;40860;51.710;8.736;2023-01-19T02:36:43;10.25;;;7.15;;
54959;SDS011;40860;51.710;8.736;2023-01-19T02:40:52;8.93;;;6.80;;
54959;SDS011;40860;51.710;8.736;2023-01-19T02:44:55;8.50;;;6.75;;
54959;SDS011;40860;51.710;8.736;2023-01-19T02:48:59;9.52;;;6.50;;
54959;SDS011;40860;51.710;8.736;2023-01-19T02:53:05;13.43;;;7.32;;
54959;SDS011;40860;51.710;8.736;2023-01-19T02:57:32;10.57;;;7.25;;
54959;SDS011;40860;51.710;8.736;2023-01-19T03:01:45;9.65;;;6.60;;
54959;SDS011;40860;51.710;8.736;2023-01-19T03:06:01;9.13;;;6.93;;
54959;SDS011;40860;51.710;8.736;2023-01-19T03:10:13;9.48;;;6.70;;
54959;SDS011;40860;51.710;8.736;2023-01-19T03:14:23;9.40;;;6.60;;
54959;SDS011;40860;51.710;8.736;2023-01-19T03:18:32;8.88;;;6.20;;
54959;SDS011;40860;51.710;8.736;2023-01-19T03:22:38;8.85;;;6.25;;
54959;SDS011;40860;51.710;8.736;2023-01-19T03:26:43;9.48;;;6.57;;
54959;SDS011;40860;51.710;8.736;2023-01-19T03:30:52;8.63;;;6.25;;
54959;SDS011;40860;51.710;8.736;2023-01-19T03:35:00;8.32;;;6.47;;
54959;SDS011;40860;51.710;8.736;2023-01-19T03:39:07;9.07;;;6.45;;
54959;SDS011;40860;51.710;8.736;2023-01-19T03:43:12;9.45;;;6.90;;
54959;SDS011;40860;51.710;8.736;2023-01-19T03:47:19;9.02;;;6.45;;
54959;SDS011;40860;51.710;8.736;2023-01-19T03:51:26;7.95;;;6.35;;
54959;SDS011;40860;51.710;8.736;2023-01-19T03:55:32;9.40;;;6.60;;
54959;SDS011;40860;51.710;8.736;2023-01-19T03:59:40;8.27;;;6.47;;
54959;SDS011;40860;51.710;8.736;2023-01-19T04:03:44;8.52;;;6.30;;
54959;SDS011;40860;51.710;8.736;2023-01-19T04:07:48;9.98;;;6.25;;
54959;SDS011;40860;51.710;8.736;2023-01-19T04:17:04;8.48;;;5.95;;
54959;SDS011;40860;51.710;8.736;2023-01-19T04:21:10;8.10;;;6.55;;
54959;SDS011;40860;51.710;8.736;2023-01-19T04:25:14;10.27;;;6.60;;
54959;SDS011;40860;51.710;8.736;2023-01-19T04:34:57;13.00;;;6.75;;
54959;SDS011;40860;51.710;8.736;2023-01-19T04:39:02;12.02;;;6.60;;
54959;SDS011;40860;51.710;8.736;2023-01-19T04:43:05;9.15;;;6.78;;
54959;SDS011;40860;51.710;8.736;2023-01-19T04:47:09;8.95;;;7.00;;
54959;SDS011;40860;51.710;8.736;2023-01-19T04:51:20;10.02;;;6.78;;
54959;SDS011;40860;51.710;8.736;2023-01-19T04:55:24;11.85;;;6.63;;
54959;SDS011;40860;51.710;8.736;2023-01-19T04:59:28;8.82;;;6.35;;
54959;SDS011;40860;51.710;8.736;2023-01-19T05:03:34;9.90;;;6.57;;
54959;SDS011;40860;51.710;8.736;2023-01-19T05:07:40;9.15;;;6.70;;
54959;SDS011;40860;51.710;8.736;2023-01-19T05:11:46;10.27;;;6.43;;
54959;SDS011;40860;51.710;8.736;2023-01-19T05:15:49;8.75;;;6.07;;
54959;SDS011;40860;51.710;8.736;2023-01-19T05:19:53;9.35;;;6.07;;
54959;SDS011;40860;51.710;8.736;2023-01-19T05:23:56;10.82;;;6.00;;
54959;SDS011;40860;51.710;8.736;2023-01-19T05:28:04;10.05;;;6.65;;
54959;SDS011;40860;51.710;8.736;2023-01-19T05:32:12;10.32;;;6.78;;
54959;SDS011;40860;51.710;8.736;2023-01-19T05:36:19;10.30;;;6.68;;
54959;SDS011;40860;51.710;8.736;2023-01-19T05:40:29;7.18;;;6.47;;
54959;SDS011;40860;51.710;8.736;2023-01-19T05:44:35;10.63;;;6.32;;
54959;SDS011;40860;51.710;8.736;2023-01-19T05:48:39;11.18;;;6.90;;
54959;SDS011;40860;51.710;8.736;2023-01-19T05:52:42;10.07;;;6.30;;
54959;SDS011;40860;51.710;8.736;2023-01-19T05:56:49;10.00;;;6.35;;
54959;SDS011;40860;51.710;8.736;2023-01-19T06:05:20;9.48;;;6.53;;
54959;SDS011;40860;51.710;8.736;2023-01-19T06:09:40;10.07;;;6.78;;
54959;SDS011;40860;51.710;8.736;2023-01-19T06:13:43;11.82;;;6.85;;
54959;SDS011;40860;51.710;8.736;2023-01-19T06:17:48;11.38;;;5.82;;
54959;SDS011;40860;51.710;8.736;2023-01-19T06:21:51;8.75;;;6.10;;
54959;SDS011;40860;51.710;8.736;2023-01-19T06:25:57;9.52;;;6.22;;
54959;SDS011;40860;51.710;8.736;2023-01-19T06:30:01;8.73;;;6.28;;
54959;SDS011;40860;51.710;8.736;2023-01-19T06:34:06;8.00;;;5.72;;
54959;SDS011;40860;51.710;8.736;2023-01-19T06:38:10;9.80;;;6.45;;
54959;SDS011;40860;51.710;8.736;2023-01-19T06:42:14;8.68;;;6.35;;
54959;SDS011;40860;51.710;8.736;2023-01-19T06:46:21;8.95;;;6.00;;
54959;SDS011;40860;51.710;8.736;2023-01-19T06:50:28;12.63;;;5.75;;
54959;SDS011;40860;51.710;8.736;2023-01-19T06:54:32;12.18;;;6.57;;
54959;SDS011;40860;51.710;8.736;2023-01-19T06:58:35;10.70;;;6.32;;
54959;SDS011;40860;51.710;8.736;2023-01-19T07:02:39;8.73;;;6.32;;
54959;SDS011;40860;51.710;8.736;2023-01-19T07:06:44;7.13;;;6.13;;
54959;SDS011;40860;51.710;8.736;2023-01-19T07:10:47;8.57;;;7.10;;
54959;SDS011;40860;51.710;8.736;2023-01-19T07:15:10;10.95;;;7.15;;
54959;SDS011;40860;51.710;8.736;2023-01-19T07:19:13;8.70;;;7.20;;
54959;SDS011;40860;51.710;8.736;2023-01-19T07:23:19;9.93;;;7.20;;
54959;SDS011;40860;51.710;8.736;2023-01-19T07:27:22;8.73;;;6.68;;
54959;SDS011;40860;51.710;8.736;2023-01-19T07:31:26;10.20;;;7.25;;
54959;SDS011;40860;51.710;8.736;2023-01-19T07:35:29;10.13;;;7.20;;
54959;SDS011;40860;51.710;8.736;2023-01-19T07:39:33;8.55;;;6.28;;
54959;SDS011;40860;51.710;8.736;2023-01-19T07:43:36;9.60;;;6.82;;
54959;SDS011;40860;51.710;8.736;2023-01-19T07:47:41;8.68;;;5.85;;
54959;SDS011;40860;51.710;8.736;2023-01-19T07:51:44;8.27;;;6.20;;
54959;SDS011;40860;51.710;8.736;2023-01-19T07:55:53;8.10;;;5.80;;
54959;SDS011;40860;51.710;8.736;2023-01-19T07:59:56;7.60;;;6.03;;
54959;SDS011;40860;51.710;8.736;2023-01-19T08:03:59;6.97;;;5.43;;
54959;SDS011;40860;51.710;8.736;2023-01-19T08:08:02;7.30;;;5.65;;
54959;SDS011;40860;51.710;8.736;2023-01-19T08:12:07;7.38;;;5.15;;
54959;SDS011;40860;51.710;8.736;2023-01-19T08:16:10;5.70;;;5.10;;
54959;SDS011;40860;51.710;8.736;2023-01-19T08:20:13;6.82;;;5.25;;
54959;SDS011;40860;51.710;8.736;2023-01-19T08:24:16;5.25;;;4.43;;
54959;SDS011;40860;51.710;8.736;2023-01-19T08:28:22;4.65;;;4.15;;
54959;SDS011;40860;51.710;8.736;2023-01-19T08:32:26;4.70;;;4.20;;
54959;SDS011;40860;51.710;8.736;2023-01-19T08:36:29;4.20;;;3.35;;
54959;SDS011;40860;51.710;8.736;2023-01-19T08:40:32;3.75;;;3.45;;
54959;SDS011;40860;51.710;8.736;2023-01-19T08:44:38;4.45;;;3.47;;
54959;SDS011;40860;51.710;8.736;2023-01-19T08:48:57;4.35;;;3.33;;
54959;SDS011;40860;51.710;8.736;2023-01-19T08:53:00;3.13;;;2.70;;
54959;SDS011;40860;51.710;8.736;2023-01-19T08:57:04;3.33;;;2.78;;
54959;SDS011;40860;51.710;8.736;2023-01-19T09:01:09;4.15;;;2.92;;
54959;SDS011;40860;51.710;8.736;2023-01-19T09:05:15;3.78;;;3.15;;
54959;SDS011;40860;51.710;8.736;2023-01-19T09:09:18;4.50;;;3.13;;
54959;SDS011;40860;51.710;8.736;2023-01-19T09:13:20;5.32;;;2.83;;
54959;SDS011;40860;51.710;8.736;2023-01-19T09:17:25;4.40;;;2.80;;
54959;SDS011;40860;51.710;8.736;2023-01-19T09:21:28;3.50;;;3.08;;
54959;SDS011;40860;51.710;8.736;2023-01-19T09:25:30;3.13;;;2.50;;
54959;SDS011;40860;51.710;8.736;2023-01-19T09:29:33;5.32;;;3.30;;
54959;SDS011;40860;51.710;8.736;2023-01-19T09:33:38;3.35;;;2.92;;
54959;SDS011;40860;51.710;8.736;2023-01-19T09:37:44;4.90;;;3.80;;
54959;SDS011;40860;51.710;8.736;2023-01-19T09:41:48;5.05;;;3.75;;
54959;SDS011;40860;51.710;8.736;2023-01-19T09:46:03;6.60;;;4.13;;
54959;SDS011;40860;51.710;8.736;2023-01-19T09:50:14;4.07;;;3.45;;
54959;SDS011;40860;51.710;8.736;2023-01-19T09:54:22;4.22;;;3.25;;
54959;SDS011;40860;51.710;8.736;2023-01-19T09:58:30;3.45;;;2.80;;
54959;SDS011;40860;51.710;8.736;2023-01-19T10:02:34;3.20;;;2.90;;
54959;SDS011;40860;51.710;8.736;2023-01-19T10:06:42;4.00;;;3.60;;
54959;SDS011;40860;51.710;8.736;2023-01-19T10:10:51;5.40;;;3.83;;
54959;SDS011;40860;51.710;8.736;2023-01-19T10:14:58;5.40;;;4.28;;
54959;SDS011;40860;51.710;8.736;2023-01-19T10:19:14;8.57;;;5.53;;
54959;SDS011;40860;51.710;8.736;2023-01-19T10:23:31;7.80;;;5.68;;
54959;SDS011;40860;51.710;8.736;2023-01-19T10:27:38;9.50;;;5.95;;
54959;SDS011;40860;51.710;8.736;2023-01-19T10:31:41;7.13;;;6.40;;
54959;SDS011;40860;51.710;8.736;2023-01-19T10:35:47;8.32;;;6.82;;
54959;SDS011;40860;51.710;8.736;2023-01-19T10:39:52;8.50;;;6.32;;
54959;SDS011;40860;51.710;8.736;2023-01-19T10:44:00;7.18;;;6.43;;
54959;SDS011;40860;51.710;8.736;2023-01-19T10:48:04;7.95;;;6.57;;
54959;SDS011;40860;51.710;8.736;2023-01-19T10:52:17;9.90;;;6.85;;
54959;SDS011;40860;51.710;8.736;2023-01-19T10:56:28;8.95;;;6.30;;
54959;SDS011;40860;51.710;8.736;2023-01-19T11:00:34;10.13;;;7.32;;
54959;SDS011;40860;51.710;8.736;2023-01-19T11:04:38;8.98;;;7.03;;
54959;SDS011;40860;51.710;8.736;2023-01-19T11:08:42;8.50;;;7.60;;
54959;SDS011;40860;51.710;8.736;2023-01-19T11:12:57;9.18;;;6.85;;
54959;SDS011;40860;51.710;8.736;2023-01-19T11:17:03;9.73;;;7.30;;
54959;SDS011;40860;51.710;8.736;2023-01-19T11:21:07;8.73;;;7.68;;
54959;SDS011;40860;51.710;8.736;2023-01-19T11:25:19;16.23;;;10.13;;
54959;SDS011;40860;51.710;8.736;2023-01-19T11:29:28;15.88;;;11.00;;
54959;SDS011;40860;51.710;8.736;2023-01-19T11:33:33;16.20;;;11.52;;
54959;SDS011;40860;51.710;8.736;2023-01-19T11:37:37;19.42;;;12.18;;
54959;SDS011;40860;51.710;8.736;2023-01-19T11:41:43;23.17;;;13.40;;
54959;SDS011;40860;51.710;8.736;2023-01-19T11:45:51;23.38;;;13.63;;
54959;SDS011;40860;51.710;8.736;2023-01-19T11:49:58;26.55;;;14.93;;
54959;SDS011;40860;51.710;8.736;2023-01-19T11:54:08;28.05;;;16.25;;
54959;SDS011;40860;51.710;8.736;2023-01-19T11:58:19;27.95;;;16.08;;
54959;SDS011;40860;51.710;8.736;2023-01-19T12:02:25;31.58;;;17.08;;
54959;SDS011;40860;51.710;8.736;2023-01-19T12:06:31;38.35;;;18.90;;
54959;SDS011;40860;51.710;8.736;2023-01-19T12:10:37;31.33;;;17.45;;
54959;SDS011;40860;51.710;8.736;2023-01-19T12:14:46;33.03;;;18.08;;
54959;SDS011;40860;51.710;8.736;2023-01-19T12:18:59;36.60;;;17.58;;
54959;SDS011;40860;51.710;8.736;2023-01-19T12:23:06;32.38;;;18.38;;
54959;SDS011;40860;51.710;8.736;2023-01-19T12:27:21;33.83;;;18.65;;
54959;SDS011;40860;51.710;8.736;2023-01-19T12:31:35;34.95;;;19.45;;
54959;SDS011;40860;51.710;8.736;2023-01-19T12:35:55;33.85;;;19.48;;
54959;SDS011;40860;51.710;8.736;2023-01-19T12:40:00;40.85;;;20.60;;
54959;SDS011;40860;51.710;8.736;2023-01-19T12:44:13;38.22;;;20.48;;
54959;SDS011;40860;51.710;8.736;2023-01-19T12:48:24;42.65;;;21.60;;
54959;SDS011;40860;51.710;8.736;2023-01-19T12:52:30;36.13;;;20.48;;
54959;SDS011;40860;51.710;8.736;2023-01-19T12:56:35;37.50;;;21.10;;
54959;SDS011;40860;51.710;8.736;2023-01-19T13:00:40;36.00;;;20.88;;
54959;SDS011;40860;51.710;8.736;2023-01-19T13:09:28;40.63;;;22.17;;
54959;SDS011;40860;51.710;8.736;2023-01-19T13:13:32;34.95;;;20.85;;
54959;SDS011;40860;51.710;8.736;2023-01-19T13:17:37;27.63;;;18.92;;
54959;SDS011;40860;51.710;8.736;2023-01-19T13:21:50;33.08;;;20.55;;
54959;SDS011;40860;51.710;8.736;2023-01-19T13:26:01;33.67;;;20.95;;
54959;SDS011;40860;51.710;8.736;2023-01-19T13:30:10;34.95;;;20.63;;
54959;SDS011;40860;51.710;8.736;2023-01-19T13:34:17;35.65;;;20.02;;
54959;SDS011;40860;51.710;8.736;2023-01-19T13:38:22;33.45;;;20.10;;
54959;SDS011;40860;51.710;8.736;2023-01-19T13:42:29;33.25;;;19.60;;
54959;SDS011;40860;51.710;8.736;2023-01-19T13:46:34;34.70;;;20.23;;
54959;SDS011;40860;51.710;8.736;2023-01-19T13:50:38;29.50;;;17.67;;
54959;SDS011;40860;51.710;8.736;2023-01-19T13:54:46;28.88;;;18.38;;
54959;SDS011;40860;51.710;8.736;2023-01-19T13:59:02;29.45;;;17.75;;
54959;SDS011;40860;51.710;8.736;2023-01-19T14:03:14;34.58;;;18.30;;
54959;SDS011;40860;51.710;8.736;2023-01-19T14:07:21;31.65;;;17.70;;
54959;SDS011;40860;51.710;8.736;2023-01-19T14:11:26;27.77;;;16.30;;
54959;SDS011;40860;51.710;8.736;2023-01-19T14:15:32;29.40;;;16.92;;
54959;SDS011;40860;51.710;8.736;2023-01-19T14:19:48;27.67;;;16.38;;
54959;SDS011;40860;51.710;8.736;2023-01-19T14:23:52;25.52;;;16.52;;
54959;SDS011;40860;51.710;8.736;2023-01-19T14:32:40;32.47;;;15.95;;
54959;SDS011;40860;51.710;8.736;2023-01-19T14:36:48;29.70;;;17.13;;
54959;SDS011;40860;51.710;8.736;2023-01-19T14:40:52;31.88;;;16.98;;
54959;SDS011;40860;51.710;8.736;2023-01-19T14:44:56;31.17;;;17.13;;
54959;SDS011;40860;51.710;8.736;2023-01-19T14:49:03;29.77;;;16.75;;
54959;SDS011;40860;51.710;8.736;2023-01-19T14:53:13;32.00;;;17.05;;
54959;SDS011;40860;51.710;8.736;2023-01-19T14:57:18;32.53;;;17.48;;
54959;SDS011;40860;51.710;8.736;2023-01-19T15:01:20;30.63;;;16.58;;
54959;SDS011;40860;51.710;8.736;2023-01-19T15:05:26;29.33;;;16.65;;
54959;SDS011;40860;51.710;8.736;2023-01-19T15:09:29;30.67;;;16.23;;
54959;SDS011;40860;51.710;8.736;2023-01-19T15:13:32;27.83;;;16.27;;
54959;SDS011;40860;51.710;8.736;2023-01-19T15:17:35;26.02;;;15.57;;
54959;SDS011;40860;51.710;8.736;2023-01-19T15:21:39;28.98;;;16.42;;
54959;SDS011;40860;51.710;8.736;2023-01-19T15:25:43;28.30;;;15.80;;
54959;SDS011;40860;51.710;8.736;2023-01-19T15:29:46;30.23;;;15.88;;
54959;SDS011;40860;51.710;8.736;2023-01-19T15:33:49;31.30;;;16.38;;
54959;SDS011;40860;51.710;8.736;2023-01-19T15:37:53;31.23;;;16.60;;
54959;SDS011;40860;51.710;8.736;2023-01-19T15:41:56;30.73;;;16.48;;
54959;SDS011;40860;51.710;8.736;2023-01-19T15:45:59;30.98;;;16.92;;
54959;SDS011;40860;51.710;8.736;2023-01-19T15:50:03;36.60;;;18.55;;
54959;SDS011;40860;51.710;8.736;2023-01-19T15:54:08;38.75;;;18.00;;
54959;SDS011;40860;51.710;8.736;2023-01-19T15:58:14;39.10;;;19.00;;
54959;SDS011;40860;51.710;8.736;2023-01-19T16:02:17;38.53;;;18.02;;
54959;SDS011;40860;51.710;8.736;2023-01-19T16:06:20;31.83;;;18.15;;
54959;SDS011;40860;51.710;8.736;2023-01-19T16:10:24;34.05;;;19.65;;
54959;SDS011;40860;51.710;8.736;2023-01-19T16:14:27;41.88;;;19.52;;
54959;SDS011;40860;51.710;8.736;2023-01-19T16:18:30;32.15;;;17.83;;
54959;SDS011;40860;51.710;8.736;2023-01-19T16:22:33;34.28;;;18.30;;
54959;SDS011;40860;51.710;8.736;2023-01-19T16:26:38;31.17;;;17.30;;
54959;SDS011;40860;51.710;8.736;2023-01-19T16:30:41;33.72;;;18.17;;
54959;SDS011;40860;51.710;8.736;2023-01-19T16:34:44;31.90;;;17.05;;
54959;SDS011;40860;51.710;8.736;2023-01-19T16:38:46;34.22;;;17.58;;
54959;SDS011;40860;51.710;8.736;2023-01-19T16:42:51;31.75;;;17.60;;
54959;SDS011;40860;51.710;8.736;2023-01-19T16:46:53;34.97;;;16.98;;
54959;SDS011;40860;51.710;8.736;2023-01-19T16:50:57;31.55;;;16.67;;
54959;SDS011;40860;51.710;8.736;2023-01-19T16:55:01;38.92;;;17.42;;
54959;SDS011;40860;51.710;8.736;2023-01-19T16:59:10;34.15;;;16.85;;
54959;SDS011;40860;51.710;8.736;2023-01-19T17:03:14;33.08;;;17.00;;
54959;SDS011;40860;51.710;8.736;2023-01-19T17:07:17;33.67;;;17.02;;
54959;SDS011;40860;51.710;8.736;2023-01-19T17:11:21;29.52;;;16.33;;
54959;SDS011;40860;51.710;8.736;2023-01-19T17:15:27;34.67;;;17.23;;
54959;SDS011;40860;51.710;8.736;2023-01-19T17:19:31;34.00;;;16.88;;
54959;SDS011;40860;51.710;8.736;2023-01-19T17:23:35;35.28;;;17.30;;
54959;SDS011;40860;51.710;8.736;2023-01-19T17:27:39;32.42;;;16.60;;
54959;SDS011;40860;51.710;8.736;2023-01-19T17:31:43;36.42;;;17.17;;
54959;SDS011;40860;51.710;8.736;2023-01-19T17:35:47;33.65;;;15.85;;
54959;SDS011;40860;51.710;8.736;2023-01-19T17:39:50;25.52;;;15.68;;
54959;SDS011;40860;51.710;8.736;2023-01-19T17:43:53;32.88;;;16.58;;
54959;SDS011;40860;51.710;8.736;2023-01-19T17:47:58;37.22;;;16.73;;
54959;SDS011;40860;51.710;8.736;2023-01-19T17:52:01;28.90;;;15.50;;
54959;SDS011;40860;51.710;8.736;2023-01-19T17:56:05;34.08;;;16.42;;
54959;SDS011;40860;51.710;8.736;2023-01-19T18:00:10;31.15;;;16.25;;
54959;SDS011;40860;51.710;8.736;2023-01-19T18:04:15;34.80;;;15.95;;
54959;SDS011;40860;51.710;8.736;2023-01-19T18:08:18;29.83;;;15.85;;
54959;SDS011;40860;51.710;8.736;2023-01-19T18:12:21;31.83;;;15.70;;
54959;SDS011;40860;51.710;8.736;2023-01-19T18:16:26;31.83;;;15.68;;
54959;SDS011;40860;51.710;8.736;2023-01-19T18:20:31;27.75;;;15.30;;
54959;SDS011;40860;51.710;8.736;2023-01-19T18:24:37;30.25;;;15.20;;
54959;SDS011;40860;51.710;8.736;2023-01-19T18:28:40;33.03;;;16.05;;
54959;SDS011;40860;51.710;8.736;2023-01-19T18:32:47;27.85;;;14.68;;
54959;SDS011;40860;51.710;8.736;2023-01-19T18:36:53;32.35;;;15.25;;
54959;SDS011;40860;51.710;8.736;2023-01-19T18:41:00;32.88;;;14.77;;
54959;SDS011;40860;51.710;8.736;2023-01-19T18:45:04;29.15;;;14.80;;
54959;SDS011;40860;51.710;8.736;2023-01-19T18:49:08;27.20;;;15.18;;
54959;SDS011;40860;51.710;8.736;2023-01-19T18:53:14;31.30;;;15.23;;
54959;SDS011;40860;51.710;8.736;2023-01-19T18:57:20;26.13;;;14.32;;
54959;SDS011;40860;51.710;8.736;2023-01-19T19:01:29;30.20;;;14.93;;
54959;SDS011;40860;51.710;8.736;2023-01-19T19:05:35;29.10;;;15.38;;
54959;SDS011;40860;51.710;8.736;2023-01-19T19:09:39;25.02;;;14.38;;
54959;SDS011;40860;51.710;8.736;2023-01-19T19:13:42;24.67;;;13.50;;
54959;SDS011;40860;51.710;8.736;2023-01-19T19:17:46;21.48;;;12.82;;
54959;SDS011;40860;51.710;8.736;2023-01-19T19:21:53;19.92;;;12.05;;
54959;SDS011;40860;51.710;8.736;2023-01-19T19:26:01;27.70;;;12.30;;
54959;SDS011;40860;51.710;8.736;2023-01-19T19:30:06;21.70;;;12.00;;
54959;SDS011;40860;51.710;8.736;2023-01-19T19:34:10;25.60;;;13.18;;
54959;SDS011;40860;51.710;8.736;2023-01-19T19:38:13;29.13;;;14.35;;
54959;SDS011;40860;51.710;8.736;2023-01-19T19:42:18;30.58;;;14.65;;
54959;SDS011;40860;51.710;8.736;2023-01-19T19:46:24;25.50;;;13.68;;
54959;SDS011;40860;51.710;8.736;2023-01-19T19:50:28;25.02;;;13.20;;
54959;SDS011;40860;51.710;8.736;2023-01-19T19:54:32;28.73;;;14.27;;
54959;SDS011;40860;51.710;8.736;2023-01-19T19:58:36;24.92;;;13.35;;
54959;SDS011;40860;51.710;8.736;2023-01-19T20:02:48;22.48;;;13.27;;
54959;SDS011;40860;51.710;8.736;2023-01-19T20:06:56;24.65;;;13.00;;
54959;SDS011;40860;51.710;8.736;2023-01-19T20:11:04;29.73;;;13.50;;
54959;SDS011;40860;51.710;8.736;2023-01-19T20:15:10;21.15;;;12.90;;
54959;SDS011;40860;51.710;8.736;2023-01-19T20:19:13;22.95;;;13.82;;
54959;SDS011;40860;51.710;8.736;2023-01-19T20:23:18;24.02;;;13.68;;
54959;SDS011;40860;51.710;8.736;2023-01-19T20:27:21;23.08;;;13.35;;
54959;SDS011;40860;51.710;8.736;2023-01-19T20:31:28;26.52;;;13.38;;
54959;SDS011;40860;51.710;8.736;2023-01-19T20:35:33;23.67;;;13.40;;
54959;SDS011;40860;51.710;8.736;2023-01-19T20:39:36;26.42;;;12.98;;
54959;SDS011;40860;51.710;8.736;2023-01-19T20:43:39;25.83;;;15.57;;
54959;SDS011;40860;51.710;8.736;2023-01-19T20:47:44;25.42;;;14.73;;
54959;SDS011;40860;51.710;8.736;2023-01-19T20:51:47;24.13;;;13.30;;
54959;SDS011;40860;51.710;8.736;2023-01-19T20:55:52;24.20;;;13.23;;
54959;SDS011;40860;51.710;8.736;2023-01-19T20:59:59;22.88;;;13.63;;
54959;SDS011;40860;51.710;8.736;2023-01-19T21:04:08;26.98;;;13.57;;
54959;SDS011;40860;51.710;8.736;2023-01-19T21:08:14;24.58;;;14.25;;
54959;SDS011;40860;51.710;8.736;2023-01-19T21:12:18;25.60;;;13.27;;
54959;SDS011;40860;51.710;8.736;2023-01-19T21:16:26;23.45;;;13.98;;
54959;SDS011;40860;51.710;8.736;2023-01-19T21:20:54;25.25;;;14.30;;
54959;SDS011;40860;51.710;8.736;2023-01-19T21:25:01;24.38;;;14.15;;
54959;SDS011;40860;51.710;8.736;2023-01-19T21:29:04;24.33;;;13.95;;
54959;SDS011;40860;51.710;8.736;2023-01-19T21:33:07;22.27;;;13.70;;
54959;SDS011;40860;51.710;8.736;2023-01-19T21:37:12;19.35;;;13.60;;
54959;SDS011;40860;51.710;8.736;2023-01-19T21:41:15;21.88;;;13.90;;
54959;SDS011;40860;51.710;8.736;2023-01-19T21:45:18;25.33;;;14.20;;
54959;SDS011;40860;51.710;8.736;2023-01-19T21:49:21;22.77;;;13.88;;
54959;SDS011;40860;51.710;8.736;2023-01-19T21:53:25;23.52;;;12.65;;
54959;SDS011;40860;51.710;8.736;2023-01-19T21:57:28;25.33;;;15.32;;
54959;SDS011;40860;51.710;8.736;2023-01-19T22:01:32;28.83;;;14.98;;
54959;SDS011;40860;51.710;8.736;2023-01-19T22:05:35;27.90;;;15.18;;
54959;SDS011;40860;51.710;8.736;2023-01-19T22:09:39;28.83;;;15.18;;
54959;SDS011;40860;51.710;8.736;2023-01-19T22:13:42;28.65;;;16.48;;
54959;SDS011;40860;51.710;8.736;2023-01-19T22:17:45;31.75;;;15.10;;
54959;SDS011;40860;51.710;8.736;2023-01-19T22:21:56;27.92;;;13.73;;
54959;SDS011;40860;51.710;8.736;2023-01-19T22:26:07;25.98;;;13.90;;
54959;SDS011;40860;51.710;8.736;2023-01-19T22:30:13;27.08;;;14.25;;
54959;SDS011;40860;51.710;8.736;2023-01-19T22:34:17;22.05;;;14.15;;
54959;SDS011;40860;51.710;8.736;2023-01-19T22:38:20;21.05;;;12.48;;
54959;SDS011;40860;51.710;8.736;2023-01-19T22:42:24;21.75;;;12.15;;
54959;SDS011;40860;51.710;8.736;2023-01-19T22:46:30;21.50;;;12.13;;
54959;SDS011;40860;51.710;8.736;2023-01-19T22:50:38;20.70;;;12.35;;
54959;SDS011;40860;51.710;8.736;2023-01-19T22:54:41;21.48;;;12.35;;
54959;SDS011;40860;51.710;8.736;2023-01-19T22:58:45;22.30;;;11.80;;
54959;SDS011;40860;51.710;8.736;2023-01-19T23:02:49;21.92;;;12.52;;
54959;SDS011;40860;51.710;8.736;2023-01-19T23:06:59;26.55;;;12.40;;
54959;SDS011;40860;51.710;8.736;2023-01-19T23:11:03;22.13;;;12.85;;
54959;SDS011;40860;51.710;8.736;2023-01-19T23:15:09;18.30;;;12.02;;
54959;SDS011;40860;51.710;8.736;2023-01-19T23:19:21;20.83;;;12.25;;
54959;SDS011;40860;51.710;8.736;2023-01-19T23:23:36;20.02;;;11.82;;
54959;SDS011;40860;51.710;8.736;2023-01-19T23:27:41;22.90;;;11.82;;
54959;SDS011;40860;51.710;8.736;2023-01-19T23:31:50;19.77;;;12.23;;
54959;SDS011;40860;51.710;8.736;2023-01-19T23:35:56;22.40;;;11.65;;
54959;SDS011;40860;51.710;8.736;2023-01-19T23:40:04;18.00;;;11.82;;
54959;SDS011;40860;51.710;8.736;2023-01-19T23:44:12;23.55;;;11.95;;
54959;SDS011;40860;51.710;8.736;2023-01-19T23:48:16;21.10;;;12.45;;
54959;SDS011;40860;51.710;8.736;2023-01-19T23:52:19;23.00;;;12.98;;
54959;SDS011;40860;51.710;8.736;2023-01-19T23:56:22;18.27;;;11.55;;
